createdAt,value
2018-11-28T00:02:11.046Z,66.71
2018-11-28T00:04:41.037Z,66.90
2018-11-28T00:07:26.762Z,66.75
2018-11-28T00:09:56.670Z,66.51
2018-11-28T00:12:26.678Z,66.83
2018-11-28T00:14:56.586Z,66.53
2018-11-28T00:17:26.472Z,66.87
2018-11-28T00:19:56.382Z,66.28
2018-11-28T00:22:26.341Z,66.66
2018-11-28T00:24:56.254Z,66.45
2018-11-28T00:27:26.169Z,66.96
2018-11-28T00:29:56.074Z,66.53
2018-11-28T00:32:25.977Z,66.49
2018-11-28T00:34:55.889Z,66.09
2018-11-28T00:37:25.862Z,66.54
2018-11-28T00:39:55.701Z,66.53
2018-11-28T00:42:31.290Z,66.23
2018-11-28T00:45:01.184Z,66.65
2018-11-28T00:47:31.097Z,67.00
2018-11-28T00:50:01.053Z,66.84
2018-11-28T00:52:30.929Z,66.79
2018-11-28T00:55:00.829Z,66.48
2018-11-28T00:57:30.805Z,66.60
2018-11-28T01:00:00.777Z,66.88
2018-11-28T01:02:30.694Z,67.11
2018-11-28T01:05:00.601Z,67.19
2018-11-28T01:07:30.609Z,67.25
2018-11-28T01:10:00.541Z,67.07
2018-11-28T01:12:30.452Z,66.50
2018-11-28T01:15:00.355Z,66.85
2018-11-28T01:17:30.306Z,67.05
2018-11-28T01:20:00.249Z,66.97
2018-11-28T01:22:30.175Z,66.86
2018-11-28T01:25:00.087Z,67.14
2018-11-28T01:27:30.006Z,67.12
2018-11-28T01:29:59.978Z,66.15
2018-11-28T01:32:29.881Z,66.69
2018-11-28T01:34:59.776Z,67.23
2018-11-28T01:37:29.817Z,67.62
2018-11-28T01:39:59.719Z,67.33
2018-11-28T01:42:29.900Z,67.27
2018-11-28T01:44:59.834Z,67.83
2018-11-28T01:47:29.744Z,67.69
2018-11-28T01:49:59.647Z,67.60
2018-11-28T01:52:29.666Z,67.45
2018-11-28T01:54:59.565Z,67.78
2018-11-28T01:57:29.482Z,67.33
2018-11-28T01:59:59.392Z,67.61
2018-11-28T02:02:29.297Z,66.91
2018-11-28T04:33:40.772Z,66.96
2018-11-28T04:36:10.656Z,66.31
2018-11-28T04:38:40.575Z,66.91
2018-11-28T04:41:10.509Z,66.51
2018-11-28T04:43:40.431Z,66.67
2018-11-28T04:46:10.352Z,67.28
2018-11-28T04:48:40.254Z,67.25
2018-11-28T04:51:10.195Z,67.07
2018-11-28T04:53:40.095Z,67.01
2018-11-28T04:56:10.013Z,66.76
2018-11-28T04:58:39.917Z,67.44
2018-11-28T05:01:10.469Z,67.76
2018-11-28T05:03:40.621Z,67.43
2018-11-28T05:06:10.809Z,67.15
2018-11-28T05:08:40.700Z,67.00
2018-11-28T05:11:10.625Z,66.87
2018-11-28T05:13:41.023Z,66.79
2018-11-28T05:16:11.009Z,66.77
2018-11-28T05:18:41.032Z,66.70
2018-11-28T05:21:11.021Z,67.33
2018-11-28T05:23:40.926Z,66.64
2018-11-28T05:26:10.856Z,66.97
2018-11-28T05:28:40.858Z,66.29
2018-11-28T05:31:10.893Z,66.32
2018-11-28T05:33:40.822Z,66.74
2018-11-28T05:36:16.849Z,66.75
2018-11-28T05:38:46.857Z,66.84
2018-11-28T05:41:16.864Z,66.97
2018-11-28T05:43:46.924Z,66.22
2018-11-28T05:46:16.909Z,66.05
2018-11-28T05:48:46.831Z,66.51
2018-11-28T05:51:16.831Z,66.04
2018-11-28T05:53:46.721Z,65.79
2018-11-28T05:56:16.761Z,65.63
2018-11-28T05:58:46.672Z,65.75
2018-11-28T06:01:16.632Z,65.89
2018-11-28T06:03:46.552Z,66.32
2018-11-28T06:06:16.662Z,65.91
2018-11-28T06:08:46.699Z,65.85
2018-11-28T06:11:16.598Z,65.78
2018-11-28T06:13:46.530Z,66.05
2018-11-28T06:16:16.465Z,65.91
2018-11-28T06:18:46.447Z,66.43
2018-11-28T06:21:16.457Z,66.35
2018-11-28T06:23:46.377Z,66.30
2018-11-28T06:26:16.303Z,65.99
2018-11-28T06:28:46.203Z,65.62
2018-11-28T06:31:16.121Z,65.51
2018-11-28T06:33:46.012Z,65.41
2018-11-28T06:36:16.053Z,65.46
2018-11-28T06:38:45.966Z,65.47
2018-11-28T06:41:15.993Z,64.99
2018-11-28T06:43:45.892Z,65.63
2018-11-28T06:46:15.810Z,65.55
2018-11-28T06:48:45.812Z,65.80
2018-11-28T06:51:15.748Z,66.20
2018-11-28T06:53:45.644Z,66.28
2018-11-28T06:56:15.569Z,65.87
2018-11-28T06:58:45.491Z,66.21
2018-11-28T07:01:15.405Z,66.14
2018-11-28T07:03:45.280Z,66.61
2018-11-28T07:06:15.205Z,66.03
2018-11-28T07:08:45.121Z,65.92
2018-11-28T07:11:15.055Z,66.07
2018-11-28T07:13:44.961Z,66.42
2018-11-28T07:16:14.899Z,66.52
2018-11-28T07:19:15.008Z,66.10
2018-11-28T07:21:44.985Z,66.74
2018-11-28T07:24:14.919Z,66.10
2018-11-28T07:26:44.868Z,66.33
2018-11-28T07:29:16.574Z,66.42
2018-11-28T07:31:46.513Z,66.85
2018-11-28T07:34:16.404Z,66.80
2018-11-28T07:36:46.323Z,67.11
2018-11-28T07:39:16.221Z,67.18
2018-11-28T07:41:46.121Z,67.12
2018-11-28T07:44:16.028Z,66.46
2018-11-28T07:46:45.961Z,66.60
2018-11-28T07:49:15.858Z,66.51
2018-11-28T07:51:45.768Z,66.53
2018-11-28T07:54:15.744Z,66.41
2018-11-28T07:56:45.752Z,66.96
2018-11-28T07:59:15.645Z,66.76
2018-11-28T08:01:45.564Z,67.04
2018-11-28T08:04:15.504Z,66.92
2018-11-28T08:06:45.547Z,66.71
2018-11-28T08:09:15.479Z,66.76
2018-11-28T08:11:45.386Z,67.11
2018-11-28T08:14:17.024Z,67.40
2018-11-28T08:16:48.151Z,67.59
2018-11-28T08:19:17.021Z,67.13
2018-11-28T08:21:47.160Z,67.05
2018-11-28T08:24:17.089Z,67.47
2018-11-28T08:26:46.994Z,67.08
2018-11-28T08:29:17.188Z,66.99
2018-11-28T08:31:46.996Z,67.36
2018-11-28T08:34:16.925Z,67.26
2018-11-28T08:36:46.804Z,67.62
2018-11-28T08:39:16.741Z,67.14
2018-11-28T08:41:46.642Z,67.14
2018-11-28T08:44:16.562Z,66.84
2018-11-28T08:46:46.461Z,67.29
2018-11-28T08:49:16.377Z,67.19
2018-11-28T08:51:46.264Z,67.10
2018-11-28T08:54:16.182Z,67.91
2018-11-28T08:56:46.073Z,67.73
2018-11-28T08:59:15.978Z,67.91
2018-11-28T09:01:45.862Z,68.16
2018-11-28T09:04:15.770Z,67.65
2018-11-28T09:06:45.660Z,67.53
2018-11-28T09:09:15.608Z,67.21
2018-11-28T09:11:45.477Z,67.37
2018-11-28T09:14:15.376Z,68.26
2018-11-28T09:16:45.270Z,67.61
2018-11-28T09:19:15.176Z,67.06
2018-11-28T09:21:45.080Z,66.86
2018-11-28T09:24:14.994Z,67.25
2018-11-28T09:26:44.885Z,67.36
2018-11-28T09:29:16.864Z,68.12
2018-11-28T09:31:46.758Z,68.20
2018-11-28T09:34:16.691Z,67.66
2018-11-28T09:36:46.593Z,67.87
2018-11-28T09:39:16.510Z,68.05
2018-11-28T09:41:46.451Z,67.82
2018-11-28T09:44:16.359Z,67.74
2018-11-28T09:46:46.278Z,67.74
2018-11-28T09:49:16.188Z,67.45
2018-11-28T09:51:46.084Z,67.44
2018-11-28T09:54:16.000Z,68.36
2018-11-28T09:56:48.744Z,68.92
2018-11-28T09:59:18.656Z,67.97
2018-11-28T10:01:48.559Z,67.96
2018-11-28T10:04:18.742Z,68.03
2018-11-28T10:06:48.893Z,67.69
2018-11-28T10:09:18.846Z,67.76
2018-11-28T10:11:48.743Z,67.43
2018-11-28T10:14:18.665Z,67.09
2018-11-28T10:16:49.175Z,67.10
2018-11-28T10:19:18.497Z,67.18
2018-11-28T10:21:48.389Z,66.98
2018-11-28T10:24:18.320Z,66.37
2018-11-28T10:26:48.220Z,66.59
2018-11-28T10:29:18.910Z,65.91
2018-11-28T10:31:49.317Z,66.68
2018-11-28T10:34:19.222Z,66.44
2018-11-28T10:36:49.146Z,66.92
2018-11-28T10:39:19.053Z,66.84
2018-11-28T10:41:49.024Z,66.37
2018-11-28T10:44:18.922Z,66.00
2018-11-28T10:46:48.828Z,66.62
2018-11-28T10:49:18.739Z,65.75
2018-11-28T10:51:50.374Z,65.60
2018-11-28T10:54:18.630Z,65.48
2018-11-28T10:56:48.553Z,63.73
2018-11-28T10:59:18.444Z,64.96
2018-11-28T11:01:52.294Z,65.39
2018-11-28T11:05:24.810Z,64.45
2018-11-28T11:08:00.042Z,65.01
2018-11-28T11:10:35.305Z,65.78
2018-11-28T11:13:10.496Z,64.29
2018-11-28T11:15:40.410Z,64.90
2018-11-28T11:18:12.384Z,65.24
2018-11-28T11:20:42.361Z,65.25
2018-11-28T11:23:12.256Z,63.43
2018-11-28T11:25:42.178Z,63.58
2018-11-28T11:28:12.101Z,63.58
2018-11-28T11:30:42.021Z,63.11
2018-11-28T11:33:11.951Z,63.21
2018-11-28T11:35:41.864Z,62.63
2018-11-28T11:38:11.838Z,64.01
2018-11-28T11:40:41.696Z,63.69
2018-11-28T11:43:11.869Z,64.55
2018-11-28T11:45:41.760Z,64.23
2018-11-28T11:48:11.682Z,63.29
2018-11-28T11:50:42.432Z,62.61
2018-11-28T11:53:12.433Z,63.17
2018-11-28T11:55:42.274Z,62.24
2018-11-28T11:58:12.216Z,63.62
2018-11-28T12:00:44.248Z,62.55
2018-11-28T12:03:15.302Z,62.17
2018-11-28T12:05:49.721Z,61.35
2018-11-28T12:08:19.629Z,60.08
2018-11-28T12:10:49.570Z,61.03
2018-11-28T12:13:19.506Z,60.35
2018-11-28T12:15:49.404Z,61.70
2018-11-28T12:18:19.345Z,62.34
2018-11-28T12:20:55.409Z,61.23
2018-11-28T12:23:25.355Z,60.53
2018-11-28T12:25:55.289Z,60.79
2018-11-28T12:28:25.192Z,61.01
2018-11-28T12:30:55.596Z,61.09
2018-11-28T12:33:25.521Z,60.06
2018-11-28T12:35:55.448Z,60.21
2018-11-28T12:38:25.377Z,60.36
2018-11-28T12:40:55.521Z,61.79
2018-11-28T12:43:25.450Z,61.69
2018-11-28T12:45:55.356Z,61.60
2018-11-28T12:48:25.252Z,61.44
2018-11-28T12:50:55.161Z,60.61
2018-11-28T12:53:25.056Z,60.63
2018-11-28T12:55:54.954Z,60.31
2018-11-28T12:58:24.859Z,60.40
2018-11-28T13:00:54.740Z,60.87
2018-11-28T13:03:24.654Z,61.38
2018-11-28T13:05:54.548Z,61.27
2018-11-28T13:08:24.448Z,61.14
2018-11-28T13:10:54.357Z,60.34
2018-11-28T13:13:24.245Z,60.83
2018-11-28T13:15:54.186Z,60.87
2018-11-28T13:18:24.076Z,60.37
2018-11-28T13:20:53.972Z,61.01
2018-11-28T13:23:23.881Z,60.76
2018-11-28T13:25:53.785Z,61.34
2018-11-28T13:28:23.668Z,60.42
2018-11-28T13:30:53.571Z,61.94
2018-11-28T13:33:23.456Z,61.68
2018-11-28T13:35:53.408Z,61.16
2018-11-28T13:38:23.323Z,61.33
2018-11-28T13:40:53.308Z,61.74
2018-11-28T13:43:23.505Z,62.09
2018-11-28T13:45:53.417Z,61.53
2018-11-28T13:48:23.380Z,61.74
2018-11-28T13:50:53.285Z,61.39
2018-11-28T13:53:23.182Z,61.38
2018-11-28T13:56:57.369Z,61.54
2018-11-28T13:58:26.209Z,61.22
2018-11-28T14:00:56.170Z,61.58
2018-11-28T14:03:26.077Z,61.96
2018-11-28T14:05:56.058Z,61.62
2018-11-28T14:08:25.982Z,61.55
2018-11-28T14:10:55.892Z,62.38
2018-11-28T14:13:25.810Z,62.01
2018-11-28T14:15:55.702Z,61.92
2018-11-28T14:18:25.604Z,61.58
2018-11-28T14:20:55.519Z,61.85
2018-11-28T14:23:25.456Z,61.22
2018-11-28T14:25:55.398Z,61.42
2018-11-28T14:28:25.300Z,61.55
2018-11-28T14:30:55.192Z,61.74
2018-11-28T14:33:25.108Z,61.88
2018-11-28T14:35:55.008Z,62.04
2018-11-28T14:38:24.915Z,62.25
2018-11-28T14:40:54.812Z,62.22
2018-11-28T14:43:24.828Z,61.86
2018-11-28T14:45:54.734Z,61.48
2018-11-28T14:48:24.636Z,61.87
2018-11-28T14:50:54.533Z,62.96
2018-11-28T14:53:24.456Z,62.27
2018-11-28T14:55:54.413Z,62.52
2018-11-28T14:58:24.312Z,62.44
2018-11-28T15:00:54.296Z,62.12
2018-11-28T15:03:24.336Z,61.87
2018-11-28T15:06:33.972Z,61.71
2018-11-28T15:09:09.131Z,61.95
2018-11-28T15:11:39.065Z,62.78
2018-11-28T15:14:09.032Z,61.93
2018-11-28T15:16:39.153Z,62.43
2018-11-28T15:19:09.061Z,61.98
2018-11-28T15:21:39.625Z,61.71
2018-11-28T15:24:09.538Z,61.28
2018-11-28T15:26:39.438Z,61.30
2018-11-28T15:29:09.360Z,62.18
2018-11-28T15:31:39.342Z,61.80
2018-11-28T15:34:09.340Z,61.89
2018-11-28T15:36:39.228Z,61.47
2018-11-28T15:39:10.355Z,61.55
2018-11-28T15:41:40.247Z,61.84
2018-11-28T15:44:10.157Z,61.20
2018-11-28T15:46:40.269Z,61.21
2018-11-28T15:49:10.188Z,61.80
2018-11-28T15:51:40.304Z,61.56
2018-11-28T15:54:10.249Z,61.41
2018-11-28T15:56:40.240Z,61.76
2018-11-28T15:59:10.183Z,60.98
2018-11-28T16:01:40.156Z,61.42
2018-11-28T16:04:10.090Z,61.38
2018-11-28T16:06:40.003Z,61.40
2018-11-28T16:09:15.226Z,60.72
2018-11-28T16:11:45.153Z,60.81
2018-11-28T16:14:15.210Z,60.56
2018-11-28T16:16:45.105Z,60.63
2018-11-28T16:19:15.039Z,61.17
2018-11-28T16:21:45.086Z,60.90
2018-11-28T16:24:15.012Z,60.97
2018-11-28T16:26:44.984Z,60.79
2018-11-28T16:29:15.122Z,61.04
2018-11-28T16:31:45.025Z,60.46
2018-11-28T16:34:15.050Z,60.97
2018-11-28T16:36:45.012Z,60.68
2018-11-28T16:39:15.166Z,61.02
2018-11-28T16:41:45.057Z,60.68
2018-11-28T16:44:15.049Z,60.86
2018-11-28T16:46:45.000Z,60.80
2018-11-28T16:49:15.000Z,60.72
2018-11-28T16:51:44.900Z,60.75
2018-11-28T16:54:14.805Z,61.21
2018-11-28T16:56:44.730Z,60.85
2018-11-28T16:59:14.696Z,60.92
2018-11-28T17:01:44.594Z,60.97
2018-11-28T17:04:14.508Z,61.36
2018-11-28T17:06:44.391Z,61.26
2018-11-28T17:09:14.356Z,61.56
2018-11-28T17:11:44.249Z,61.53
2018-11-28T17:14:14.156Z,61.26
2018-11-28T17:16:44.040Z,61.38
2018-11-28T17:19:13.955Z,61.10
2018-11-28T17:21:44.147Z,61.91
2018-11-28T17:24:14.064Z,61.73
2018-11-28T17:26:43.953Z,61.57
2018-11-28T17:29:13.873Z,60.97
2018-11-28T17:31:43.781Z,61.65
2018-11-28T17:34:13.730Z,61.82
2018-11-28T17:36:43.617Z,62.17
2018-11-28T17:39:13.768Z,61.85
2018-11-28T17:41:43.741Z,61.46
2018-11-28T17:44:13.677Z,61.81
2018-11-28T17:46:43.573Z,61.87
2018-11-28T17:49:13.544Z,62.26
2018-11-28T17:51:43.444Z,61.84
2018-11-28T17:54:13.355Z,62.05
2018-11-28T17:56:43.258Z,61.47
2018-11-28T17:59:13.182Z,61.72
2018-11-28T18:01:43.060Z,62.40
2018-11-28T18:04:12.998Z,62.25
2018-11-28T18:06:42.875Z,62.29
2018-11-28T18:09:13.082Z,62.35
2018-11-28T18:11:42.982Z,62.48
2018-11-28T18:14:13.112Z,62.12
2018-11-28T18:16:43.015Z,62.06
2018-11-28T18:19:13.214Z,62.61
2018-11-28T18:21:43.147Z,62.46
2018-11-28T18:24:13.233Z,62.57
2018-11-28T18:26:43.179Z,62.75
2018-11-28T18:29:13.149Z,62.82
2018-11-28T18:31:43.062Z,63.04
2018-11-28T18:34:13.164Z,63.18
2018-11-28T18:36:43.052Z,62.87
2018-11-28T18:39:13.106Z,62.85
2018-11-28T18:41:43.126Z,63.06
2018-11-28T18:44:13.310Z,63.06
2018-11-28T18:46:50.000Z,63.07
2018-11-28T18:49:19.994Z,63.04
2018-11-28T18:51:49.932Z,62.60
2018-11-28T18:54:19.852Z,63.24
2018-11-28T18:56:49.740Z,62.65
2018-11-28T18:59:19.686Z,62.57
2018-11-28T19:01:49.629Z,62.93
2018-11-28T19:04:20.089Z,62.47
2018-11-28T19:06:50.061Z,62.97
2018-11-28T19:09:25.309Z,62.85
2018-11-28T19:11:55.196Z,62.84
2018-11-28T19:14:25.222Z,63.02
2018-11-28T19:16:55.152Z,62.85
2018-11-28T19:19:25.247Z,62.88
2018-11-28T19:21:55.225Z,62.80
2018-11-28T19:24:25.188Z,62.34
2018-11-28T19:26:55.157Z,62.53
2018-11-28T19:29:25.170Z,62.07
2018-11-28T19:31:55.224Z,62.43
2018-11-28T19:34:25.140Z,62.70
2018-11-28T19:36:55.128Z,63.00
2018-11-28T19:39:25.001Z,62.79
2018-11-28T19:41:54.937Z,63.12
2018-11-28T19:44:24.840Z,63.82
2018-11-28T19:46:54.904Z,62.90
2018-11-28T19:49:24.804Z,62.73
2018-11-28T19:51:54.825Z,63.70
2018-11-28T19:54:24.797Z,63.54
2018-11-28T19:56:54.735Z,63.41
2018-11-28T19:59:24.736Z,63.33
2018-11-28T20:01:54.661Z,63.05
2018-11-28T20:04:24.646Z,63.42
2018-11-28T20:06:54.663Z,63.36
2018-11-28T20:09:24.577Z,63.43
2018-11-28T20:11:54.517Z,62.96
2018-11-28T20:14:24.457Z,63.07
2018-11-28T20:16:54.560Z,63.28
2018-11-28T20:19:24.441Z,62.95
2018-11-28T20:21:54.425Z,62.82
2018-11-28T20:24:24.390Z,63.03
2018-11-28T20:26:54.373Z,62.85
2018-11-28T20:29:24.272Z,63.13
2018-11-28T20:31:54.190Z,63.02
2018-11-28T20:34:24.374Z,62.96
2018-11-28T20:36:54.419Z,62.79
2018-11-28T20:39:24.591Z,62.90
2018-11-28T20:41:54.537Z,62.58
2018-11-28T20:44:24.651Z,62.92
2018-11-28T20:46:54.696Z,63.15
2018-11-28T20:49:24.889Z,62.70
2018-11-28T20:51:55.112Z,62.92
2018-11-28T20:54:25.189Z,62.87
2018-11-28T20:56:55.344Z,63.42
2018-11-28T20:59:25.534Z,63.21
2018-11-28T21:01:55.806Z,62.71
2018-11-28T21:04:25.897Z,62.87
2018-11-28T21:06:55.829Z,62.60
2018-11-28T21:09:26.736Z,62.36
2018-11-28T21:11:56.677Z,62.95
2018-11-28T21:14:26.723Z,63.18
2018-11-28T21:16:56.640Z,63.21
2018-11-28T21:19:26.801Z,62.81
2018-11-28T21:21:56.717Z,62.72
2018-11-28T21:24:26.821Z,62.95
2018-11-28T21:26:59.737Z,63.09
2018-11-28T21:29:30.004Z,62.40
2018-11-28T21:31:59.985Z,63.03
2018-11-28T21:34:29.901Z,62.35
2018-11-28T21:36:59.810Z,62.67
2018-11-28T21:39:29.776Z,62.88
2018-11-28T21:41:59.745Z,62.73
2018-11-28T21:44:29.953Z,62.64
2018-11-28T21:46:59.862Z,62.88
2018-11-28T21:49:29.944Z,62.71
2018-11-28T21:51:59.937Z,62.75
2018-11-28T21:54:29.975Z,63.17
2018-11-28T21:56:59.897Z,63.06
2018-11-28T21:59:30.010Z,62.96
2018-11-28T22:01:59.978Z,63.08
2018-11-28T22:04:30.105Z,62.95
2018-11-28T22:07:00.000Z,63.26
2018-11-28T22:09:33.881Z,63.11
2018-11-28T22:12:03.842Z,63.00
2018-11-28T22:14:33.846Z,62.81
2018-11-28T22:17:03.755Z,63.13
2018-11-28T22:19:33.657Z,63.55
2018-11-28T22:22:03.583Z,63.52
2018-11-28T22:24:33.770Z,62.90
2018-11-28T22:27:03.663Z,62.66
2018-11-28T22:29:34.307Z,62.01
2018-11-28T22:32:04.417Z,62.73
2018-11-28T22:34:34.275Z,63.14
2018-11-28T22:37:04.198Z,62.94
2018-11-28T22:39:34.088Z,62.76
2018-11-28T22:42:04.001Z,62.84
2018-11-28T22:44:33.905Z,62.04
2018-11-28T22:47:03.813Z,62.27
2018-11-28T22:49:33.808Z,62.13
2018-11-28T22:52:04.115Z,62.15
2018-11-28T22:54:34.100Z,62.13
2018-11-28T22:57:04.043Z,62.13
2018-11-28T22:59:34.170Z,62.77
2018-11-28T23:02:57.154Z,62.26
2018-11-28T23:05:31.289Z,62.48
2018-11-28T23:08:02.709Z,62.68
2018-11-28T23:10:32.709Z,63.63
2018-11-28T23:13:02.612Z,63.24
2018-11-28T23:15:32.589Z,62.67
2018-11-28T23:18:02.484Z,62.55
2018-11-28T23:20:32.401Z,62.61
2018-11-28T23:23:02.377Z,62.50
2018-11-28T23:25:32.293Z,62.41
2018-11-28T23:28:02.198Z,61.92
2018-11-28T23:30:32.149Z,62.49
2018-11-28T23:33:02.261Z,63.44
2018-11-28T23:35:32.525Z,63.46
2018-11-28T23:38:02.427Z,62.94
2018-11-28T23:40:32.320Z,62.60
2018-11-28T23:43:02.433Z,63.14
2018-11-28T23:45:32.469Z,63.47
2018-11-28T23:48:02.461Z,63.31
2018-11-28T23:50:32.362Z,63.28
2018-11-28T23:53:02.278Z,63.12
2018-11-28T23:55:32.607Z,62.91
2018-11-28T23:58:02.507Z,62.40
